createdAt,value
2022-08-30T00:01:31.307Z,13.74
2022-08-30T00:03:59.473Z,13.70
2022-08-30T00:06:28.837Z,13.65
2022-08-30T00:08:57.254Z,13.64
2022-08-30T00:11:28.071Z,13.60
2022-08-30T00:13:58.312Z,13.57
2022-08-30T00:16:26.847Z,13.55
2022-08-30T00:18:54.755Z,13.53
2022-08-30T00:21:22.454Z,13.47
2022-08-30T00:23:49.539Z,13.43
2022-08-30T00:26:16.663Z,13.39
2022-08-30T00:28:43.666Z,13.37
2022-08-30T00:31:11.035Z,13.33
2022-08-30T00:33:45.085Z,13.31
2022-08-30T00:36:11.928Z,13.28
2022-08-30T00:38:39.054Z,13.24
2022-08-30T00:41:06.002Z,13.19
2022-08-30T00:43:36.820Z,13.18
2022-08-30T00:46:07.869Z,13.14
2022-08-30T00:48:41.208Z,13.11
2022-08-30T00:51:11.602Z,13.07
2022-08-30T00:53:44.989Z,13.04
2022-08-30T00:56:12.779Z,13.05
2022-08-30T00:58:46.079Z,13.01
2022-08-30T01:01:13.688Z,12.98
2022-08-30T01:03:42.034Z,12.98
2022-08-30T01:06:09.147Z,12.96
2022-08-30T01:08:35.974Z,12.96
2022-08-30T01:11:04.330Z,12.94
2022-08-30T01:13:34.515Z,12.94
2022-08-30T01:16:02.876Z,12.89
2022-08-30T01:18:32.097Z,12.88
2022-08-30T01:21:08.592Z,12.82
2022-08-30T01:23:39.491Z,12.79
2022-08-30T01:26:07.943Z,12.75
2022-08-30T01:28:35.503Z,12.73
2022-08-30T01:31:03.211Z,12.67
2022-08-30T01:33:30.668Z,12.63
2022-08-30T01:36:06.085Z,12.60
2022-08-30T01:38:43.948Z,12.58
2022-08-30T01:41:17.434Z,12.52
2022-08-30T01:43:45.103Z,12.50
2022-08-30T01:46:14.155Z,12.46
2022-08-30T01:48:42.550Z,12.41
2022-08-30T01:51:17.692Z,12.36
2022-08-30T01:53:45.976Z,12.34
2022-08-30T01:56:14.601Z,12.29
2022-08-30T01:58:41.859Z,12.27
2022-08-30T02:01:14.081Z,12.25
2022-08-30T02:03:44.829Z,12.21
2022-08-30T02:06:17.077Z,12.15
2022-08-30T02:08:44.936Z,12.14
2022-08-30T02:11:13.291Z,12.12
2022-08-30T02:13:42.513Z,12.07
2022-08-30T02:16:13.056Z,12.06
2022-08-30T02:18:41.024Z,12.03
2022-08-30T02:21:09.756Z,12.03
2022-08-30T02:23:37.174Z,12.01
2022-08-30T02:26:05.144Z,11.99
2022-08-30T02:28:32.154Z,11.97
2022-08-30T02:31:00.153Z,11.95
2022-08-30T02:33:27.677Z,11.95
2022-08-30T02:35:54.712Z,11.90
2022-08-30T02:38:21.811Z,11.90
2022-08-30T02:40:49.147Z,11.89
2022-08-30T02:43:17.168Z,11.86
2022-08-30T02:45:44.500Z,11.82
2022-08-30T02:48:11.797Z,11.81
2022-08-30T02:50:44.012Z,11.78
2022-08-30T02:53:14.103Z,11.76
2022-08-30T02:55:44.327Z,11.71
2022-08-30T02:58:11.507Z,11.68
2022-08-30T03:00:39.803Z,11.68
2022-08-30T03:03:07.642Z,11.64
2022-08-30T03:05:39.627Z,11.60
2022-08-30T03:08:08.707Z,11.56
2022-08-30T03:10:36.167Z,11.51
2022-08-30T03:13:03.812Z,11.49
2022-08-30T03:15:30.744Z,11.49
2022-08-30T03:17:58.864Z,11.46
2022-08-30T03:20:25.985Z,11.43
2022-08-30T03:22:53.228Z,11.38
2022-08-30T03:25:21.461Z,11.36
2022-08-30T03:27:48.798Z,11.33
2022-08-30T03:30:19.088Z,11.32
2022-08-30T03:32:46.988Z,11.30
2022-08-30T03:35:15.273Z,11.26
2022-08-30T03:37:42.136Z,11.23
2022-08-30T03:40:10.831Z,11.19
2022-08-30T03:42:38.100Z,11.17
2022-08-30T03:45:07.894Z,11.11
2022-08-30T03:47:34.997Z,11.10
2022-08-30T03:50:02.320Z,11.06
2022-08-30T03:52:29.146Z,11.05
2022-08-30T03:54:56.383Z,11.00
2022-08-30T03:57:24.583Z,10.98
2022-08-30T03:59:52.100Z,10.98
2022-08-30T04:02:19.854Z,10.96
2022-08-30T04:04:47.236Z,10.92
2022-08-30T04:07:14.115Z,10.92
2022-08-30T04:09:40.935Z,10.87
2022-08-30T04:12:08.311Z,10.85
2022-08-30T04:14:35.231Z,10.84
2022-08-30T04:17:02.039Z,10.80
2022-08-30T04:19:28.942Z,10.76
2022-08-30T04:21:57.465Z,10.70
2022-08-30T04:24:24.783Z,10.67
2022-08-30T04:26:51.644Z,10.65
2022-08-30T04:29:18.902Z,10.61
2022-08-30T04:31:46.299Z,10.56
2022-08-30T04:34:14.319Z,10.53
2022-08-30T04:36:41.325Z,10.52
2022-08-30T04:39:08.342Z,10.49
2022-08-30T04:41:37.634Z,10.44
2022-08-30T04:44:04.442Z,10.43
2022-08-30T04:46:31.282Z,10.43
2022-08-30T04:48:58.152Z,10.38
2022-08-30T04:51:25.048Z,10.37
2022-08-30T04:53:52.238Z,10.33
2022-08-30T04:56:22.901Z,10.30
2022-08-30T04:58:54.297Z,10.27
2022-08-30T05:01:28.362Z,10.25
2022-08-30T05:03:57.068Z,10.22
2022-08-30T05:06:27.716Z,10.19
2022-08-30T05:08:55.751Z,10.17
2022-08-30T05:11:23.674Z,10.14
2022-08-30T05:13:50.994Z,10.13
2022-08-30T05:16:19.611Z,10.12
2022-08-30T05:18:51.948Z,10.08
2022-08-30T05:21:28.346Z,10.06
2022-08-30T05:24:00.350Z,10.05
2022-08-30T05:26:32.661Z,10.04
2022-08-30T05:29:00.570Z,10.03
2022-08-30T05:31:34.686Z,10.03
2022-08-30T05:34:02.511Z,10.03
2022-08-30T05:36:32.330Z,10.06
2022-08-30T05:39:00.672Z,10.07
2022-08-30T05:41:28.455Z,10.15
2022-08-30T05:44:01.458Z,10.17
2022-08-30T05:49:20.472Z,10.31
2022-08-30T05:51:47.419Z,10.39
2022-08-30T05:54:15.698Z,10.51
2022-08-30T05:56:45.707Z,10.64
2022-08-30T05:59:14.084Z,10.77
2022-08-30T06:01:44.858Z,10.90
2022-08-30T06:04:13.828Z,11.02
2022-08-30T06:06:44.048Z,11.14
2022-08-30T06:09:13.734Z,11.26
2022-08-30T06:11:41.131Z,11.32
2022-08-30T06:14:08.565Z,11.42
2022-08-30T06:16:39.070Z,11.58
2022-08-30T06:19:08.735Z,11.66
2022-08-30T06:21:37.162Z,11.79
2022-08-30T06:24:07.064Z,11.92
2022-08-30T06:26:42.870Z,12.00
2022-08-30T06:29:17.731Z,12.10
2022-08-30T06:31:45.301Z,12.17
2022-08-30T06:34:12.413Z,12.23
2022-08-30T06:36:39.486Z,12.37
2022-08-30T06:39:07.923Z,12.47
2022-08-30T06:41:37.784Z,12.48
2022-08-30T06:44:06.191Z,12.56
2022-08-30T06:46:36.657Z,12.57
2022-08-30T06:49:05.700Z,12.63
2022-08-30T06:51:39.854Z,12.68
2022-08-30T06:54:10.853Z,12.70
2022-08-30T06:56:40.336Z,12.77
2022-08-30T06:59:10.124Z,12.87
2022-08-30T07:01:37.081Z,12.98
2022-08-30T07:04:04.919Z,13.12
2022-08-30T07:06:33.160Z,13.17
2022-08-30T07:09:00.020Z,13.30
2022-08-30T07:11:34.141Z,13.27
2022-08-30T07:14:01.975Z,13.47
2022-08-30T07:16:29.459Z,13.57
2022-08-30T07:18:58.996Z,13.67
2022-08-30T07:21:28.920Z,13.77
2022-08-30T07:23:58.752Z,13.94
2022-08-30T07:26:43.371Z,14.06
2022-08-30T07:29:10.851Z,14.26
2022-08-30T07:31:38.299Z,14.45
2022-08-30T07:34:07.570Z,14.53
2022-08-30T07:36:36.671Z,14.69
2022-08-30T07:39:06.165Z,14.86
2022-08-30T07:41:38.773Z,14.96
2022-08-30T07:44:08.450Z,15.09
2022-08-30T07:46:36.158Z,15.23
2022-08-30T07:49:04.066Z,15.34
2022-08-30T07:51:32.537Z,15.46
2022-08-30T07:54:00.805Z,15.73
2022-08-30T07:56:28.249Z,16.03
2022-08-30T07:58:55.110Z,16.37
2022-08-30T08:01:23.819Z,16.62
2022-08-30T08:03:51.668Z,16.88
2022-08-30T08:06:21.439Z,17.07
2022-08-30T08:08:49.380Z,17.24
2022-08-30T08:11:21.132Z,17.43
2022-08-30T08:13:53.204Z,17.65
2022-08-30T08:16:28.367Z,17.76
2022-08-30T08:18:55.882Z,17.85
2022-08-30T08:21:25.661Z,18.00
2022-08-30T08:23:52.807Z,18.09
2022-08-30T08:26:20.534Z,18.18
2022-08-30T08:28:47.954Z,18.32
2022-08-30T08:31:23.663Z,18.27
2022-08-30T08:33:57.052Z,18.34
2022-08-30T08:36:23.870Z,18.45
2022-08-30T08:38:50.894Z,18.43
2022-08-30T08:41:54.211Z,18.40
2022-08-30T08:44:44.361Z,18.57
2022-08-30T08:47:17.607Z,18.56
2022-08-30T08:49:48.103Z,18.58
2022-08-30T08:53:07.222Z,18.50
2022-08-30T08:55:34.459Z,18.54
2022-08-30T08:58:01.982Z,18.50
2022-08-30T09:00:30.204Z,18.46
2022-08-30T09:03:01.171Z,18.43
2022-08-30T09:05:36.533Z,18.43
2022-08-30T09:08:10.066Z,18.46
2022-08-30T09:10:54.176Z,18.45
2022-08-30T09:13:23.023Z,18.45
2022-08-30T09:15:54.758Z,18.48
2022-08-30T09:18:45.594Z,18.46
2022-08-30T09:21:15.170Z,18.61
2022-08-30T09:23:59.315Z,18.63
2022-08-30T09:26:37.135Z,18.74
2022-08-30T09:29:05.838Z,18.76
2022-08-30T09:32:10.043Z,18.75
2022-08-30T09:34:44.354Z,18.73
2022-08-30T09:37:31.289Z,18.75
2022-08-30T09:39:59.012Z,18.85
2022-08-30T09:42:29.736Z,18.92
2022-08-30T09:45:10.761Z,18.92
2022-08-30T09:47:43.511Z,18.95
2022-08-30T09:50:16.738Z,19.04
2022-08-30T09:53:19.910Z,19.12
2022-08-30T09:56:18.910Z,19.21
2022-08-30T09:59:34.933Z,19.26
2022-08-30T10:02:23.845Z,19.25
2022-08-30T10:05:32.898Z,19.25
2022-08-30T10:08:38.199Z,19.35
2022-08-30T10:11:33.456Z,19.37
2022-08-30T10:14:09.039Z,19.42
2022-08-30T10:16:44.332Z,19.46
2022-08-30T10:19:30.732Z,19.53
2022-08-30T10:22:07.116Z,19.60
2022-08-30T10:24:46.883Z,19.57
2022-08-30T10:27:26.876Z,19.66
2022-08-30T10:30:06.319Z,19.71
2022-08-30T10:32:42.251Z,19.75
2022-08-30T10:35:22.570Z,19.71
2022-08-30T10:38:03.812Z,19.80
2022-08-30T10:41:00.344Z,19.86
2022-08-30T10:43:59.086Z,19.99
2022-08-30T10:47:11.139Z,20.14
2022-08-30T10:49:49.735Z,20.35
2022-08-30T10:52:41.483Z,20.50
2022-08-30T10:55:16.867Z,20.59
2022-08-30T10:57:45.441Z,20.68
2022-08-30T11:00:24.803Z,20.82
2022-08-30T11:03:20.357Z,20.92
2022-08-30T11:06:25.106Z,20.99
2022-08-30T11:09:32.407Z,21.13
2022-08-30T11:12:32.375Z,21.26
2022-08-30T11:15:12.145Z,21.37
2022-08-30T11:17:54.346Z,21.55
2022-08-30T11:20:37.796Z,21.52
2022-08-30T11:23:36.219Z,21.51
2022-08-30T11:26:12.162Z,21.43
2022-08-30T11:28:47.359Z,21.33
2022-08-30T11:31:23.570Z,21.17
2022-08-30T11:33:57.194Z,21.14
2022-08-30T11:36:37.662Z,21.01
2022-08-30T11:39:06.823Z,21.00
2022-08-30T11:42:29.303Z,20.93
2022-08-30T11:45:26.777Z,20.82
2022-08-30T11:48:10.654Z,20.83
2022-08-30T11:50:59.882Z,20.90
2022-08-30T11:54:09.415Z,21.05
2022-08-30T11:57:11.473Z,21.31
2022-08-30T11:59:44.591Z,21.53
2022-08-30T12:02:54.719Z,21.69
2022-08-30T12:05:43.103Z,21.70
2022-08-30T12:08:24.197Z,21.63
2022-08-30T12:11:11.255Z,21.50
2022-08-30T12:13:38.012Z,21.46
2022-08-30T12:16:09.507Z,21.38
2022-08-30T12:18:39.517Z,21.45
2022-08-30T12:21:43.947Z,21.50
2022-08-30T12:24:22.723Z,21.60
2022-08-30T12:26:52.822Z,21.70
2022-08-30T12:29:22.798Z,21.69
2022-08-30T12:32:05.195Z,21.81
2022-08-30T12:34:37.964Z,21.99
2022-08-30T12:37:23.657Z,22.13
2022-08-30T12:40:22.441Z,22.23
2022-08-30T12:43:00.710Z,22.38
2022-08-30T12:45:52.155Z,22.50
2022-08-30T12:48:20.712Z,22.57
2022-08-30T12:50:56.565Z,22.54
2022-08-30T12:53:33.619Z,22.50
2022-08-30T12:56:15.248Z,22.49
2022-08-30T12:58:47.586Z,22.44
2022-08-30T13:01:19.612Z,22.39
2022-08-30T13:04:00.113Z,22.39
2022-08-30T13:06:51.631Z,22.30
2022-08-30T13:09:34.045Z,22.30
2022-08-30T13:12:21.235Z,22.25
2022-08-30T13:14:50.086Z,22.23
2022-08-30T13:17:19.281Z,22.17
2022-08-30T13:20:01.418Z,22.08
2022-08-30T13:22:41.634Z,22.06
2022-08-30T13:25:11.601Z,21.96
2022-08-30T13:27:39.929Z,21.96
2022-08-30T13:30:14.839Z,21.98
2022-08-30T13:32:42.301Z,21.89
2022-08-30T13:35:10.813Z,21.82
2022-08-30T13:37:50.027Z,21.80
2022-08-30T13:40:18.386Z,21.76
2022-08-30T13:42:49.246Z,21.76
2022-08-30T13:48:06.772Z,21.79
2022-08-30T13:50:33.960Z,21.77
2022-08-30T13:53:01.115Z,21.82
2022-08-30T13:55:29.090Z,21.86
2022-08-30T13:57:57.685Z,22.00
2022-08-30T14:00:26.213Z,22.23
2022-08-30T14:02:57.205Z,22.33
2022-08-30T14:11:11.998Z,22.16
2022-08-30T14:16:31.606Z,22.17
2022-08-30T14:19:00.702Z,22.16
2022-08-30T14:21:28.554Z,22.38
2022-08-30T14:23:57.789Z,22.50
2022-08-30T14:26:33.612Z,22.65
2022-08-30T14:29:09.068Z,22.72
2022-08-30T14:31:38.187Z,22.84
2022-08-30T14:34:06.624Z,22.97
2022-08-30T14:36:36.552Z,23.09
2022-08-30T14:39:08.558Z,23.21
2022-08-30T14:41:43.651Z,23.11
2022-08-30T14:44:12.107Z,23.03
2022-08-30T14:46:39.166Z,23.01
2022-08-30T14:49:07.534Z,22.85
2022-08-30T14:51:37.080Z,22.76
2022-08-30T14:54:04.768Z,22.57
2022-08-30T14:56:31.773Z,22.46
2022-08-30T14:59:00.786Z,22.45
2022-08-30T15:01:29.965Z,22.28
2022-08-30T15:03:58.104Z,22.21
2022-08-30T15:06:26.395Z,22.14
2022-08-30T15:08:55.643Z,22.13
2022-08-30T15:11:24.756Z,22.03
2022-08-30T15:13:53.674Z,21.97
2022-08-30T15:16:27.922Z,21.97
2022-08-30T15:18:56.167Z,21.94
2022-08-30T15:21:37.326Z,21.90
2022-08-30T15:24:06.255Z,21.92
2022-08-30T15:26:33.569Z,21.87
2022-08-30T15:29:00.402Z,21.84
2022-08-30T15:31:29.688Z,21.89
2022-08-30T15:33:57.774Z,22.03
2022-08-30T15:36:27.688Z,22.11
2022-08-30T15:38:55.935Z,22.18
2022-08-30T15:41:24.219Z,22.27
2022-08-30T15:43:52.904Z,22.34
2022-08-30T15:46:29.604Z,22.26
2022-08-30T15:49:03.175Z,22.20
2022-08-30T15:51:41.134Z,22.13
2022-08-30T15:54:11.621Z,22.09
2022-08-30T15:56:39.906Z,22.09
2022-08-30T15:59:09.924Z,21.96
2022-08-30T16:01:38.292Z,21.85
2022-08-30T16:04:05.490Z,21.72
2022-08-30T16:06:37.919Z,21.64
2022-08-30T16:09:09.776Z,21.61
2022-08-30T16:11:37.591Z,21.55
2022-08-30T16:14:06.368Z,21.49
2022-08-30T16:16:33.877Z,21.51
2022-08-30T16:19:01.985Z,21.53
2022-08-30T16:21:32.485Z,21.51
2022-08-30T16:24:02.275Z,21.55
2022-08-30T16:26:31.784Z,21.50
2022-08-30T16:28:59.526Z,21.46
2022-08-30T16:31:29.525Z,21.40
2022-08-30T16:34:02.258Z,21.38
2022-08-30T16:36:30.293Z,21.35
2022-08-30T16:38:58.569Z,21.32
2022-08-30T16:41:25.862Z,21.29
2022-08-30T16:43:53.956Z,21.22
2022-08-30T16:46:23.410Z,21.11
2022-08-30T16:49:00.300Z,21.12
2022-08-30T16:51:29.894Z,21.11
2022-08-30T16:54:00.967Z,21.08
2022-08-30T16:56:30.941Z,21.03
2022-08-30T16:59:02.519Z,20.99
2022-08-30T17:01:37.771Z,20.96
2022-08-30T17:04:06.499Z,20.93
2022-08-30T17:06:33.311Z,20.90
2022-08-30T17:09:03.565Z,20.92
2022-08-30T17:11:32.866Z,20.90
2022-08-30T17:14:01.686Z,20.91
2022-08-30T17:16:30.324Z,20.90
2022-08-30T17:18:59.701Z,20.91
2022-08-30T17:21:29.583Z,20.86
2022-08-30T17:24:02.176Z,20.88
2022-08-30T17:26:35.631Z,20.90
2022-08-30T17:29:04.943Z,20.83
2022-08-30T17:31:31.833Z,20.82
2022-08-30T17:34:04.258Z,20.82
2022-08-30T17:36:36.843Z,20.79
2022-08-30T17:39:11.379Z,20.70
2022-08-30T17:41:49.781Z,20.69
2022-08-30T17:44:28.809Z,20.56
2022-08-30T17:46:57.101Z,20.58
2022-08-30T17:49:25.248Z,20.56
2022-08-30T17:51:56.329Z,20.50
2022-08-30T17:54:24.406Z,20.50
2022-08-30T17:56:52.527Z,20.51
2022-08-30T17:59:20.015Z,20.48
2022-08-30T18:01:53.871Z,20.38
2022-08-30T18:04:25.053Z,20.30
2022-08-30T18:06:52.598Z,20.36
2022-08-30T18:09:19.807Z,20.28
2022-08-30T18:11:47.350Z,20.25
2022-08-30T18:14:15.922Z,20.23
2022-08-30T18:16:50.281Z,20.18
2022-08-30T18:19:23.606Z,20.13
2022-08-30T18:21:51.592Z,20.10
2022-08-30T18:24:18.712Z,20.04
2022-08-30T18:26:46.678Z,20.00
2022-08-30T18:29:13.633Z,19.94
2022-08-30T18:31:40.547Z,19.88
2022-08-30T18:34:12.270Z,19.80
2022-08-30T18:36:41.342Z,19.77
2022-08-30T18:39:08.583Z,19.68
2022-08-30T18:41:42.920Z,19.59
2022-08-30T18:44:27.243Z,19.59
2022-08-30T18:46:56.379Z,19.51
2022-08-30T18:49:25.767Z,19.47
2022-08-30T18:51:53.202Z,19.46
2022-08-30T18:54:20.318Z,19.41
2022-08-30T18:56:47.329Z,19.36
2022-08-30T18:59:14.185Z,19.31
2022-08-30T19:01:42.739Z,19.26
2022-08-30T19:04:11.524Z,19.17
2022-08-30T19:06:50.082Z,19.11
2022-08-30T19:09:17.294Z,19.03
2022-08-30T19:11:45.146Z,18.97
2022-08-30T19:14:12.135Z,18.93
2022-08-30T19:16:41.268Z,18.84
2022-08-30T19:19:10.210Z,18.77
2022-08-30T19:21:39.888Z,18.70
2022-08-30T19:24:07.372Z,18.67
2022-08-30T19:26:36.195Z,18.58
2022-08-30T19:29:05.107Z,18.56
2022-08-30T19:31:32.295Z,18.48
2022-08-30T19:33:59.615Z,18.38
2022-08-30T19:36:29.127Z,18.33
2022-08-30T19:38:56.394Z,18.30
2022-08-30T19:41:24.262Z,18.28
2022-08-30T19:43:51.523Z,18.24
2022-08-30T19:46:18.511Z,18.23
2022-08-30T19:48:45.428Z,18.14
2022-08-30T19:51:15.283Z,18.10
2022-08-30T19:53:43.337Z,18.08
2022-08-30T19:56:11.000Z,18.07
2022-08-30T19:58:38.093Z,18.01
2022-08-30T20:01:11.852Z,17.99
2022-08-30T20:03:52.875Z,17.89
2022-08-30T20:06:24.168Z,17.86
2022-08-30T20:08:51.003Z,17.79
2022-08-30T20:11:23.473Z,17.78
2022-08-30T20:13:50.375Z,17.70
2022-08-30T20:16:17.762Z,17.67
2022-08-30T20:18:45.689Z,17.60
2022-08-30T20:21:14.670Z,17.54
2022-08-30T20:23:43.197Z,17.54
2022-08-30T20:26:11.926Z,17.49
2022-08-30T20:28:40.515Z,17.44
2022-08-30T20:31:11.272Z,17.41
2022-08-30T20:33:39.327Z,17.34
2022-08-30T20:36:09.959Z,17.28
2022-08-30T20:38:38.240Z,17.26
2022-08-30T20:41:12.626Z,17.22
2022-08-30T20:43:40.537Z,17.17
2022-08-30T20:46:13.893Z,17.13
2022-08-30T20:48:42.373Z,17.09
2022-08-30T20:51:17.421Z,17.07
2022-08-30T20:53:45.136Z,17.05
2022-08-30T20:56:15.552Z,17.02
2022-08-30T20:58:43.263Z,16.98
2022-08-30T21:01:13.958Z,16.99
2022-08-30T21:03:41.997Z,16.89
2022-08-30T21:06:09.340Z,16.90
2022-08-30T21:08:36.171Z,16.87
2022-08-30T21:11:03.453Z,16.85
2022-08-30T21:13:30.867Z,16.83
2022-08-30T21:16:03.793Z,16.77
2022-08-30T21:18:36.784Z,16.73
2022-08-30T21:21:22.330Z,16.69
2022-08-30T21:23:49.790Z,16.66
2022-08-30T21:26:18.092Z,16.65
2022-08-30T21:28:53.825Z,16.59
2022-08-30T21:31:25.378Z,16.54
2022-08-30T21:33:54.467Z,16.51
2022-08-30T21:36:41.786Z,16.49
2022-08-30T21:39:10.565Z,16.49
2022-08-30T21:41:39.045Z,16.46
2022-08-30T21:44:11.562Z,16.42
2022-08-30T21:46:39.602Z,16.41
2022-08-30T21:49:09.876Z,16.34
2022-08-30T21:51:42.115Z,16.31
2022-08-30T21:54:11.184Z,16.28
2022-08-30T21:56:41.365Z,16.21
2022-08-30T21:59:09.918Z,16.20
2022-08-30T22:01:38.596Z,16.13
2022-08-30T22:04:08.834Z,16.06
2022-08-30T22:06:38.248Z,15.98
2022-08-30T22:09:09.081Z,15.96
2022-08-30T22:11:37.418Z,15.90
2022-08-30T22:14:05.907Z,15.87
2022-08-30T22:16:33.409Z,15.77
2022-08-30T22:19:01.785Z,15.73
2022-08-30T22:21:32.223Z,15.71
2022-08-30T22:23:59.855Z,15.66
2022-08-30T22:26:27.300Z,15.62
2022-08-30T22:28:55.204Z,15.57
2022-08-30T22:31:23.796Z,15.54
2022-08-30T22:33:52.866Z,15.48
2022-08-30T22:36:33.080Z,15.47
2022-08-30T22:39:01.769Z,15.44
2022-08-30T22:41:31.710Z,15.39
2022-08-30T22:43:59.035Z,15.35
2022-08-30T22:46:33.881Z,15.29
2022-08-30T22:49:04.898Z,15.30
2022-08-30T22:51:32.368Z,15.26
2022-08-30T22:54:00.967Z,15.20
2022-08-30T22:56:28.850Z,15.18
2022-08-30T22:58:56.159Z,15.18
2022-08-30T23:01:29.650Z,15.14
2022-08-30T23:03:58.026Z,15.11
2022-08-30T23:06:26.067Z,15.13
2022-08-30T23:08:52.973Z,15.09
2022-08-30T23:11:20.877Z,15.05
2022-08-30T23:13:48.217Z,15.03
2022-08-30T23:16:16.810Z,15.00
2022-08-30T23:18:46.260Z,15.01
2022-08-30T23:21:23.372Z,14.95
2022-08-30T23:24:11.218Z,14.92
2022-08-30T23:27:00.208Z,14.90
2022-08-30T23:29:46.183Z,14.88
2022-08-30T23:32:33.046Z,14.84
2022-08-30T23:35:18.790Z,14.80
2022-08-30T23:38:05.563Z,14.77
2022-08-30T23:40:51.310Z,14.72
2022-08-30T23:43:36.863Z,14.69
2022-08-30T23:46:22.799Z,14.64
2022-08-30T23:49:09.580Z,14.60
2022-08-30T23:51:56.401Z,14.59
2022-08-30T23:54:43.368Z,14.55
2022-08-30T23:57:28.997Z,14.55
